sensor_id;sensor_type;location;lat;lon;timestamp;P1;durP1;ratioP1;P2;durP2;ratioP2
37877;SDS011;23715;53.652;8.516;2023-04-10T00:04:17;63.80;;;43.78;;
37877;SDS011;23715;53.652;8.516;2023-04-10T00:09:19;63.70;;;44.00;;
37877;SDS011;23715;53.652;8.516;2023-04-10T00:14:19;65.47;;;42.78;;
37877;SDS011;23715;53.652;8.516;2023-04-10T00:19:23;65.03;;;45.00;;
37877;SDS011;23715;53.652;8.516;2023-04-10T00:24:26;74.50;;;48.50;;
37877;SDS011;23715;53.652;8.516;2023-04-10T00:29:26;70.52;;;44.18;;
37877;SDS011;23715;53.652;8.516;2023-04-10T00:34:26;67.03;;;44.98;;
37877;SDS011;23715;53.652;8.516;2023-04-10T00:39:27;61.67;;;41.50;;
37877;SDS011;23715;53.652;8.516;2023-04-10T00:44:27;63.42;;;43.15;;
37877;SDS011;23715;53.652;8.516;2023-04-10T00:54:27;59.45;;;41.15;;
37877;SDS011;23715;53.652;8.516;2023-04-10T00:59:29;62.73;;;40.65;;
37877;SDS011;23715;53.652;8.516;2023-04-10T01:04:30;55.48;;;40.05;;
37877;SDS011;23715;53.652;8.516;2023-04-10T01:09:32;59.40;;;40.65;;
37877;SDS011;23715;53.652;8.516;2023-04-10T01:19:56;64.90;;;42.93;;
37877;SDS011;23715;53.652;8.516;2023-04-10T01:30:20;62.33;;;41.60;;
37877;SDS011;23715;53.652;8.516;2023-04-10T01:35:24;62.40;;;41.73;;
37877;SDS011;23715;53.652;8.516;2023-04-10T01:40:29;61.50;;;41.18;;
37877;SDS011;23715;53.652;8.516;2023-04-10T01:45:32;58.63;;;43.33;;
37877;SDS011;23715;53.652;8.516;2023-04-10T01:50:33;63.38;;;46.33;;
37877;SDS011;23715;53.652;8.516;2023-04-10T01:55:36;60.15;;;42.73;;
37877;SDS011;23715;53.652;8.516;2023-04-10T02:00:41;60.90;;;46.70;;
37877;SDS011;23715;53.652;8.516;2023-04-10T02:11:16;61.53;;;47.85;;
37877;SDS011;23715;53.652;8.516;2023-04-10T02:16:20;59.40;;;46.77;;
37877;SDS011;23715;53.652;8.516;2023-04-10T02:21:21;60.83;;;48.57;;
37877;SDS011;23715;53.652;8.516;2023-04-10T02:26:22;61.35;;;49.73;;
37877;SDS011;23715;53.652;8.516;2023-04-10T02:31:23;59.77;;;48.63;;
37877;SDS011;23715;53.652;8.516;2023-04-10T02:36:23;59.48;;;50.33;;
37877;SDS011;23715;53.652;8.516;2023-04-10T02:41:25;63.50;;;52.40;;
37877;SDS011;23715;53.652;8.516;2023-04-10T02:46:25;61.70;;;52.15;;
37877;SDS011;23715;53.652;8.516;2023-04-10T02:51:26;63.52;;;53.00;;
37877;SDS011;23715;53.652;8.516;2023-04-10T02:56:26;65.47;;;50.92;;
37877;SDS011;23715;53.652;8.516;2023-04-10T03:01:26;63.90;;;51.45;;
37877;SDS011;23715;53.652;8.516;2023-04-10T03:06:27;64.77;;;53.73;;
37877;SDS011;23715;53.652;8.516;2023-04-10T03:11:28;66.70;;;54.77;;
37877;SDS011;23715;53.652;8.516;2023-04-10T03:16:29;64.37;;;53.63;;
37877;SDS011;23715;53.652;8.516;2023-04-10T03:21:32;63.52;;;54.25;;
37877;SDS011;23715;53.652;8.516;2023-04-10T03:26:34;64.60;;;57.27;;
37877;SDS011;23715;53.652;8.516;2023-04-10T03:31:45;62.55;;;54.05;;
37877;SDS011;23715;53.652;8.516;2023-04-10T03:36:46;66.25;;;58.20;;
37877;SDS011;23715;53.652;8.516;2023-04-10T03:41:45;65.28;;;56.70;;
37877;SDS011;23715;53.652;8.516;2023-04-10T03:46:46;64.77;;;56.68;;
37877;SDS011;23715;53.652;8.516;2023-04-10T03:51:49;66.20;;;58.25;;
37877;SDS011;23715;53.652;8.516;2023-04-10T03:56:49;71.42;;;60.88;;
37877;SDS011;23715;53.652;8.516;2023-04-10T04:01:52;64.33;;;54.40;;
37877;SDS011;23715;53.652;8.516;2023-04-10T04:12:03;65.62;;;57.25;;
37877;SDS011;23715;53.652;8.516;2023-04-10T04:17:22;66.02;;;57.15;;
37877;SDS011;23715;53.652;8.516;2023-04-10T04:22:26;66.77;;;59.90;;
37877;SDS011;23715;53.652;8.516;2023-04-10T04:27:37;70.65;;;60.90;;
37877;SDS011;23715;53.652;8.516;2023-04-10T04:32:42;66.82;;;59.67;;
37877;SDS011;23715;53.652;8.516;2023-04-10T04:37:46;68.55;;;61.30;;
37877;SDS011;23715;53.652;8.516;2023-04-10T04:43:04;67.65;;;60.45;;
37877;SDS011;23715;53.652;8.516;2023-04-10T04:48:22;69.27;;;61.87;;
37877;SDS011;23715;53.652;8.516;2023-04-10T04:53:26;70.92;;;59.75;;
37877;SDS011;23715;53.652;8.516;2023-04-10T04:58:35;68.28;;;60.67;;
37877;SDS011;23715;53.652;8.516;2023-04-10T05:03:41;69.50;;;61.65;;
37877;SDS011;23715;53.652;8.516;2023-04-10T05:08:46;70.62;;;62.58;;
37877;SDS011;23715;53.652;8.516;2023-04-10T05:14:00;68.92;;;61.70;;
37877;SDS011;23715;53.652;8.516;2023-04-10T05:19:15;74.17;;;66.28;;
37877;SDS011;23715;53.652;8.516;2023-04-10T05:24:33;71.60;;;63.80;;
37877;SDS011;23715;53.652;8.516;2023-04-10T05:29:51;73.30;;;65.12;;
37877;SDS011;23715;53.652;8.516;2023-04-10T05:35:11;70.85;;;63.58;;
37877;SDS011;23715;53.652;8.516;2023-04-10T05:40:24;75.50;;;67.90;;
37877;SDS011;23715;53.652;8.516;2023-04-10T05:45:35;75.50;;;68.02;;
37877;SDS011;23715;53.652;8.516;2023-04-10T05:50:55;76.53;;;68.57;;
37877;SDS011;23715;53.652;8.516;2023-04-10T05:56:03;75.57;;;68.30;;
37877;SDS011;23715;53.652;8.516;2023-04-10T06:01:21;75.17;;;67.72;;
37877;SDS011;23715;53.652;8.516;2023-04-10T06:06:23;78.47;;;70.57;;
37877;SDS011;23715;53.652;8.516;2023-04-10T06:11:23;77.80;;;70.05;;
37877;SDS011;23715;53.652;8.516;2023-04-10T06:16:25;79.67;;;71.60;;
37877;SDS011;23715;53.652;8.516;2023-04-10T06:21:26;79.70;;;71.82;;
37877;SDS011;23715;53.652;8.516;2023-04-10T06:26:29;79.62;;;72.70;;
37877;SDS011;23715;53.652;8.516;2023-04-10T06:31:33;75.47;;;67.82;;
37877;SDS011;23715;53.652;8.516;2023-04-10T06:36:34;76.80;;;69.47;;
37877;SDS011;23715;53.652;8.516;2023-04-10T06:41:39;74.12;;;67.00;;
37877;SDS011;23715;53.652;8.516;2023-04-10T06:46:40;67.20;;;60.48;;
37877;SDS011;23715;53.652;8.516;2023-04-10T06:51:48;66.53;;;59.98;;
37877;SDS011;23715;53.652;8.516;2023-04-10T06:56:46;66.12;;;59.25;;
37877;SDS011;23715;53.652;8.516;2023-04-10T07:01:50;59.38;;;53.30;;
37877;SDS011;23715;53.652;8.516;2023-04-10T07:06:50;58.08;;;51.92;;
37877;SDS011;23715;53.652;8.516;2023-04-10T07:11:51;51.85;;;46.55;;
37877;SDS011;23715;53.652;8.516;2023-04-10T07:16:52;49.83;;;44.63;;
37877;SDS011;23715;53.652;8.516;2023-04-10T07:21:54;51.83;;;46.50;;
37877;SDS011;23715;53.652;8.516;2023-04-10T07:26:54;51.98;;;46.60;;
37877;SDS011;23715;53.652;8.516;2023-04-10T07:31:56;47.65;;;41.25;;
37877;SDS011;23715;53.652;8.516;2023-04-10T07:36:58;44.23;;;39.48;;
37877;SDS011;23715;53.652;8.516;2023-04-10T07:42:00;44.35;;;37.13;;
37877;SDS011;23715;53.652;8.516;2023-04-10T07:47:06;42.13;;;36.95;;
37877;SDS011;23715;53.652;8.516;2023-04-10T07:52:06;42.05;;;35.17;;
37877;SDS011;23715;53.652;8.516;2023-04-10T07:57:12;39.00;;;33.50;;
37877;SDS011;23715;53.652;8.516;2023-04-10T08:02:08;36.28;;;32.33;;
37877;SDS011;23715;53.652;8.516;2023-04-10T08:12:10;34.25;;;30.52;;
37877;SDS011;23715;53.652;8.516;2023-04-10T08:17:15;34.13;;;29.85;;
37877;SDS011;23715;53.652;8.516;2023-04-10T08:22:16;31.45;;;26.45;;
37877;SDS011;23715;53.652;8.516;2023-04-10T08:27:23;29.35;;;26.27;;
37877;SDS011;23715;53.652;8.516;2023-04-10T08:32:23;30.35;;;27.22;;
37877;SDS011;23715;53.652;8.516;2023-04-10T08:37:25;29.65;;;26.45;;
37877;SDS011;23715;53.652;8.516;2023-04-10T08:42:26;28.98;;;25.77;;
37877;SDS011;23715;53.652;8.516;2023-04-10T08:47:28;30.10;;;26.82;;
37877;SDS011;23715;53.652;8.516;2023-04-10T08:52:32;25.82;;;22.98;;
37877;SDS011;23715;53.652;8.516;2023-04-10T08:57:35;29.15;;;25.70;;
37877;SDS011;23715;53.652;8.516;2023-04-10T09:02:41;28.32;;;25.17;;
37877;SDS011;23715;53.652;8.516;2023-04-10T09:07:40;27.40;;;22.75;;
37877;SDS011;23715;53.652;8.516;2023-04-10T09:12:43;25.32;;;22.60;;
37877;SDS011;23715;53.652;8.516;2023-04-10T09:17:55;25.37;;;22.80;;
37877;SDS011;23715;53.652;8.516;2023-04-10T09:22:57;25.40;;;22.55;;
37877;SDS011;23715;53.652;8.516;2023-04-10T09:28:00;25.25;;;22.60;;
37877;SDS011;23715;53.652;8.516;2023-04-10T09:33:24;23.52;;;21.02;;
37877;SDS011;23715;53.652;8.516;2023-04-10T09:38:36;23.38;;;20.85;;
37877;SDS011;23715;53.652;8.516;2023-04-10T09:43:41;21.77;;;19.52;;
37877;SDS011;23715;53.652;8.516;2023-04-10T09:48:40;22.62;;;20.32;;
37877;SDS011;23715;53.652;8.516;2023-04-10T09:53:48;22.75;;;20.32;;
37877;SDS011;23715;53.652;8.516;2023-04-10T09:58:54;23.35;;;20.97;;
37877;SDS011;23715;53.652;8.516;2023-04-10T10:04:00;21.35;;;19.27;;
37877;SDS011;23715;53.652;8.516;2023-04-10T10:09:03;22.98;;;20.52;;
37877;SDS011;23715;53.652;8.516;2023-04-10T10:14:07;25.72;;;19.35;;
37877;SDS011;23715;53.652;8.516;2023-04-10T10:19:24;22.45;;;19.95;;
37877;SDS011;23715;53.652;8.516;2023-04-10T10:24:25;21.42;;;19.17;;
37877;SDS011;23715;53.652;8.516;2023-04-10T10:29:34;22.95;;;19.77;;
37877;SDS011;23715;53.652;8.516;2023-04-10T10:34:33;25.20;;;22.30;;
37877;SDS011;23715;53.652;8.516;2023-04-10T10:39:57;26.37;;;22.50;;
37877;SDS011;23715;53.652;8.516;2023-04-10T10:45:22;22.35;;;20.10;;
37877;SDS011;23715;53.652;8.516;2023-04-10T11:06:47;16.97;;;15.35;;
37877;SDS011;23715;53.652;8.516;2023-04-10T11:11:56;22.20;;;14.43;;
37877;SDS011;23715;53.652;8.516;2023-04-10T11:16:46;17.37;;;15.63;;
37877;SDS011;23715;53.652;8.516;2023-04-10T11:22:09;16.73;;;15.13;;
37877;SDS011;23715;53.652;8.516;2023-04-10T11:33:21;17.85;;;15.85;;
37877;SDS011;23715;53.652;8.516;2023-04-10T11:38:27;17.05;;;15.35;;
37877;SDS011;23715;53.652;8.516;2023-04-10T11:43:28;16.57;;;15.08;;
37877;SDS011;23715;53.652;8.516;2023-04-10T11:48:32;17.87;;;16.32;;
37877;SDS011;23715;53.652;8.516;2023-04-10T11:53:34;19.65;;;17.50;;
37877;SDS011;23715;53.652;8.516;2023-04-10T11:58:34;16.67;;;15.28;;
37877;SDS011;23715;53.652;8.516;2023-04-10T12:03:35;15.88;;;14.30;;
37877;SDS011;23715;53.652;8.516;2023-04-10T12:08:39;18.20;;;16.40;;
37877;SDS011;23715;53.652;8.516;2023-04-10T12:13:46;18.82;;;16.97;;
37877;SDS011;23715;53.652;8.516;2023-04-10T12:18:51;20.27;;;18.45;;
37877;SDS011;23715;53.652;8.516;2023-04-10T12:23:51;20.15;;;18.35;;
37877;SDS011;23715;53.652;8.516;2023-04-10T12:28:52;19.45;;;17.55;;
37877;SDS011;23715;53.652;8.516;2023-04-10T12:34:03;18.15;;;16.45;;
37877;SDS011;23715;53.652;8.516;2023-04-10T12:39:20;17.87;;;16.07;;
37877;SDS011;23715;53.652;8.516;2023-04-10T12:44:11;17.42;;;15.43;;
37877;SDS011;23715;53.652;8.516;2023-04-10T12:49:19;18.45;;;16.57;;
37877;SDS011;23715;53.652;8.516;2023-04-10T12:54:27;16.93;;;15.43;;
37877;SDS011;23715;53.652;8.516;2023-04-10T12:59:40;16.05;;;14.50;;
37877;SDS011;23715;53.652;8.516;2023-04-10T13:04:37;15.95;;;13.78;;
37877;SDS011;23715;53.652;8.516;2023-04-10T13:09:38;15.48;;;13.95;;
37877;SDS011;23715;53.652;8.516;2023-04-10T13:14:41;14.70;;;13.08;;
37877;SDS011;23715;53.652;8.516;2023-04-10T13:19:42;14.83;;;13.15;;
37877;SDS011;23715;53.652;8.516;2023-04-10T13:24:42;16.00;;;13.55;;
37877;SDS011;23715;53.652;8.516;2023-04-10T13:29:44;16.05;;;13.68;;
37877;SDS011;23715;53.652;8.516;2023-04-10T13:34:45;14.23;;;12.90;;
37877;SDS011;23715;53.652;8.516;2023-04-10T13:39:45;13.72;;;12.58;;
37877;SDS011;23715;53.652;8.516;2023-04-10T13:44:51;14.23;;;12.37;;
37877;SDS011;23715;53.652;8.516;2023-04-10T13:49:52;14.28;;;12.88;;
37877;SDS011;23715;53.652;8.516;2023-04-10T13:55:00;14.15;;;12.85;;
37877;SDS011;23715;53.652;8.516;2023-04-10T14:00:02;13.98;;;12.58;;
37877;SDS011;23715;53.652;8.516;2023-04-10T14:05:10;14.85;;;13.40;;
37877;SDS011;23715;53.652;8.516;2023-04-10T14:10:12;13.28;;;12.20;;
37877;SDS011;23715;53.652;8.516;2023-04-10T14:15:18;13.77;;;12.20;;
37877;SDS011;23715;53.652;8.516;2023-04-10T14:20:20;14.20;;;12.90;;
37877;SDS011;23715;53.652;8.516;2023-04-10T14:30:33;14.13;;;12.90;;
37877;SDS011;23715;53.652;8.516;2023-04-10T14:35:35;13.90;;;12.60;;
37877;SDS011;23715;53.652;8.516;2023-04-10T14:40:35;12.20;;;11.15;;
37877;SDS011;23715;53.652;8.516;2023-04-10T14:45:39;12.45;;;11.40;;
37877;SDS011;23715;53.652;8.516;2023-04-10T14:50:39;14.05;;;12.85;;
37877;SDS011;23715;53.652;8.516;2023-04-10T14:55:39;12.40;;;11.35;;
37877;SDS011;23715;53.652;8.516;2023-04-10T15:00:39;13.13;;;12.10;;
37877;SDS011;23715;53.652;8.516;2023-04-10T15:05:41;12.63;;;11.53;;
37877;SDS011;23715;53.652;8.516;2023-04-10T15:10:42;12.55;;;11.55;;
37877;SDS011;23715;53.652;8.516;2023-04-10T15:15:43;12.25;;;11.22;;
37877;SDS011;23715;53.652;8.516;2023-04-10T15:20:45;13.43;;;11.85;;
37877;SDS011;23715;53.652;8.516;2023-04-10T15:25:46;16.37;;;14.73;;
37877;SDS011;23715;53.652;8.516;2023-04-10T15:35:48;12.17;;;11.27;;
37877;SDS011;23715;53.652;8.516;2023-04-10T15:40:50;12.70;;;11.60;;
37877;SDS011;23715;53.652;8.516;2023-04-10T15:45:50;11.70;;;10.70;;
37877;SDS011;23715;53.652;8.516;2023-04-10T15:50:50;12.80;;;11.65;;
37877;SDS011;23715;53.652;8.516;2023-04-10T15:55:51;14.18;;;12.80;;
37877;SDS011;23715;53.652;8.516;2023-04-10T16:00:58;11.60;;;10.53;;
37877;SDS011;23715;53.652;8.516;2023-04-10T16:05:55;11.95;;;10.93;;
37877;SDS011;23715;53.652;8.516;2023-04-10T16:10:55;11.65;;;10.63;;
37877;SDS011;23715;53.652;8.516;2023-04-10T16:15:55;12.63;;;11.63;;
37877;SDS011;23715;53.652;8.516;2023-04-10T16:20:56;12.75;;;11.85;;
37877;SDS011;23715;53.652;8.516;2023-04-10T16:25:59;13.72;;;12.63;;
37877;SDS011;23715;53.652;8.516;2023-04-10T16:35:59;12.82;;;11.93;;
37877;SDS011;23715;53.652;8.516;2023-04-10T16:41:08;12.85;;;11.83;;
37877;SDS011;23715;53.652;8.516;2023-04-10T16:46:04;12.15;;;11.08;;
37877;SDS011;23715;53.652;8.516;2023-04-10T16:51:05;12.37;;;11.12;;
37877;SDS011;23715;53.652;8.516;2023-04-10T16:56:10;12.93;;;11.83;;
37877;SDS011;23715;53.652;8.516;2023-04-10T17:06:24;12.75;;;11.57;;
37877;SDS011;23715;53.652;8.516;2023-04-10T17:11:24;12.63;;;11.53;;
37877;SDS011;23715;53.652;8.516;2023-04-10T17:16:25;13.08;;;11.70;;
37877;SDS011;23715;53.652;8.516;2023-04-10T17:21:25;13.15;;;12.05;;
37877;SDS011;23715;53.652;8.516;2023-04-10T17:26:25;12.37;;;11.38;;
37877;SDS011;23715;53.652;8.516;2023-04-10T17:31:26;11.93;;;11.03;;
37877;SDS011;23715;53.652;8.516;2023-04-10T17:41:29;11.25;;;10.40;;
37877;SDS011;23715;53.652;8.516;2023-04-10T17:46:37;11.22;;;10.32;;
37877;SDS011;23715;53.652;8.516;2023-04-10T17:51:32;10.82;;;10.03;;
37877;SDS011;23715;53.652;8.516;2023-04-10T17:56:32;9.33;;;8.60;;
37877;SDS011;23715;53.652;8.516;2023-04-10T18:01:35;9.60;;;8.78;;
37877;SDS011;23715;53.652;8.516;2023-04-10T18:06:36;10.10;;;9.30;;
37877;SDS011;23715;53.652;8.516;2023-04-10T18:11:38;9.83;;;9.03;;
37877;SDS011;23715;53.652;8.516;2023-04-10T18:16:38;10.23;;;9.50;;
37877;SDS011;23715;53.652;8.516;2023-04-10T18:21:38;9.90;;;9.30;;
37877;SDS011;23715;53.652;8.516;2023-04-10T18:26:43;9.25;;;8.65;;
37877;SDS011;23715;53.652;8.516;2023-04-10T18:31:43;9.40;;;8.53;;
37877;SDS011;23715;53.652;8.516;2023-04-10T18:36:43;10.55;;;9.65;;
37877;SDS011;23715;53.652;8.516;2023-04-10T18:41:44;9.98;;;9.28;;
37877;SDS011;23715;53.652;8.516;2023-04-10T18:46:44;10.65;;;9.85;;
37877;SDS011;23715;53.652;8.516;2023-04-10T18:51:50;10.20;;;9.40;;
37877;SDS011;23715;53.652;8.516;2023-04-10T18:56:46;9.58;;;8.78;;
37877;SDS011;23715;53.652;8.516;2023-04-10T19:01:48;9.08;;;8.48;;
37877;SDS011;23715;53.652;8.516;2023-04-10T19:06:48;10.50;;;9.70;;
37877;SDS011;23715;53.652;8.516;2023-04-10T19:11:49;10.28;;;9.53;;
37877;SDS011;23715;53.652;8.516;2023-04-10T19:16:51;13.20;;;12.00;;
37877;SDS011;23715;53.652;8.516;2023-04-10T19:21:53;13.88;;;12.60;;
37877;SDS011;23715;53.652;8.516;2023-04-10T19:26:54;13.22;;;12.10;;
37877;SDS011;23715;53.652;8.516;2023-04-10T19:31:54;14.07;;;12.70;;
37877;SDS011;23715;53.652;8.516;2023-04-10T19:36:55;18.52;;;14.50;;
37877;SDS011;23715;53.652;8.516;2023-04-10T19:41:56;12.68;;;11.68;;
37877;SDS011;23715;53.652;8.516;2023-04-10T19:46:56;15.85;;;14.40;;
37877;SDS011;23715;53.652;8.516;2023-04-10T19:51:57;14.30;;;12.93;;
37877;SDS011;23715;53.652;8.516;2023-04-10T19:57:01;15.08;;;13.80;;
37877;SDS011;23715;53.652;8.516;2023-04-10T20:02:01;15.98;;;14.83;;
37877;SDS011;23715;53.652;8.516;2023-04-10T20:07:03;16.75;;;15.40;;
37877;SDS011;23715;53.652;8.516;2023-04-10T20:12:04;18.60;;;16.95;;
37877;SDS011;23715;53.652;8.516;2023-04-10T20:22:13;23.62;;;21.42;;
37877;SDS011;23715;53.652;8.516;2023-04-10T20:27:19;26.63;;;24.17;;
37877;SDS011;23715;53.652;8.516;2023-04-10T20:32:19;30.72;;;28.05;;
37877;SDS011;23715;53.652;8.516;2023-04-10T20:37:19;29.42;;;27.20;;
37877;SDS011;23715;53.652;8.516;2023-04-10T20:42:20;30.72;;;28.57;;
37877;SDS011;23715;53.652;8.516;2023-04-10T20:47:20;36.45;;;33.48;;
37877;SDS011;23715;53.652;8.516;2023-04-10T20:52:21;38.53;;;36.13;;
37877;SDS011;23715;53.652;8.516;2023-04-10T20:57:23;39.33;;;36.53;;
37877;SDS011;23715;53.652;8.516;2023-04-10T21:02:23;33.08;;;31.07;;
37877;SDS011;23715;53.652;8.516;2023-04-10T21:07:24;30.70;;;28.85;;
37877;SDS011;23715;53.652;8.516;2023-04-10T21:12:24;30.88;;;28.95;;
37877;SDS011;23715;53.652;8.516;2023-04-10T21:17:26;33.35;;;31.35;;
37877;SDS011;23715;53.652;8.516;2023-04-10T21:22:33;40.70;;;38.30;;
37877;SDS011;23715;53.652;8.516;2023-04-10T21:27:33;42.45;;;39.85;;
37877;SDS011;23715;53.652;8.516;2023-04-10T21:32:33;45.10;;;42.55;;
37877;SDS011;23715;53.652;8.516;2023-04-10T21:37:33;49.13;;;46.23;;
37877;SDS011;23715;53.652;8.516;2023-04-10T21:42:38;46.88;;;44.18;;
37877;SDS011;23715;53.652;8.516;2023-04-10T21:47:39;47.10;;;44.10;;
37877;SDS011;23715;53.652;8.516;2023-04-10T21:57:39;45.17;;;42.45;;
37877;SDS011;23715;53.652;8.516;2023-04-10T22:02:39;46.77;;;43.87;;
37877;SDS011;23715;53.652;8.516;2023-04-10T22:07:40;47.33;;;44.53;;
37877;SDS011;23715;53.652;8.516;2023-04-10T22:12:41;44.20;;;41.48;;
37877;SDS011;23715;53.652;8.516;2023-04-10T22:17:42;45.65;;;42.90;;
37877;SDS011;23715;53.652;8.516;2023-04-10T22:22:42;46.58;;;43.87;;
37877;SDS011;23715;53.652;8.516;2023-04-10T22:27:44;43.23;;;40.58;;
37877;SDS011;23715;53.652;8.516;2023-04-10T22:32:49;41.08;;;38.78;;
37877;SDS011;23715;53.652;8.516;2023-04-10T22:37:53;40.45;;;37.85;;
37877;SDS011;23715;53.652;8.516;2023-04-10T22:42:56;41.68;;;39.33;;
37877;SDS011;23715;53.652;8.516;2023-04-10T22:47:56;41.80;;;39.33;;
37877;SDS011;23715;53.652;8.516;2023-04-10T22:53:00;41.85;;;39.38;;
37877;SDS011;23715;53.652;8.516;2023-04-10T22:58:00;40.28;;;37.78;;
37877;SDS011;23715;53.652;8.516;2023-04-10T23:03:00;43.15;;;40.70;;
37877;SDS011;23715;53.652;8.516;2023-04-10T23:13:00;43.23;;;40.80;;
37877;SDS011;23715;53.652;8.516;2023-04-10T23:18:00;44.23;;;41.53;;
37877;SDS011;23715;53.652;8.516;2023-04-10T23:23:00;46.92;;;44.15;;
37877;SDS011;23715;53.652;8.516;2023-04-10T23:28:01;46.20;;;43.28;;
37877;SDS011;23715;53.652;8.516;2023-04-10T23:33:02;45.75;;;42.93;;
37877;SDS011;23715;53.652;8.516;2023-04-10T23:38:02;43.63;;;40.95;;
37877;SDS011;23715;53.652;8.516;2023-04-10T23:43:02;45.70;;;42.62;;
37877;SDS011;23715;53.652;8.516;2023-04-10T23:48:03;46.17;;;43.40;;
37877;SDS011;23715;53.652;8.516;2023-04-10T23:53:05;44.07;;;41.47;;
